Time;durP1;ratioP1;P1;durP2;ratioP2;P2;SDS_P1;SDS_P2;PMS_P1;PMS_P2;Temp;Humidity;BMP_temperature;BMP_pressure;BME280_temperature;BME280_humidity;BME280_pressure;Samples;Min_cycle;Max_cycle;Signal;HPM_P1;HPM_P2
2023/02/25 00:00:18;;;;;;;4.50;2.00;;;;;;;;;;2095326;28;20432;-65
2023/02/25 00:01:36;;;;;;;4.45;2.08;;;;;;;;;;2093435;28;20409;-65
2023/02/25 00:02:56;;;;;;;5.03;2.17;;;;;;;;;;2093294;28;20036;-66
2023/02/25 00:04:15;;;;;;;3.75;2.28;;;;;;;;;;2094059;28;20037;-66
2023/02/25 00:05:37;;;;;;;3.30;2.30;;;;;;;;;;2095165;28;20029;-65
2023/02/25 00:06:56;;;;;;;2.45;1.75;;;;;;;;;;2094784;28;20087;-65
2023/02/25 00:08:15;;;;;;;2.15;1.95;;;;;;;;;;2093953;28;20029;-67
2023/02/25 00:09:34;;;;;;;4.55;2.20;;;;;;;;;;2095779;28;20028;-65
2023/02/25 00:10:57;;;;;;;2.67;1.92;;;;;;;;;;2093931;28;20041;-65
2023/02/25 00:12:16;;;;;;;4.72;1.98;;;;;;;;;;2092808;28;20140;-65
2023/02/25 00:13:37;;;;;;;2.13;1.95;;;;;;;;;;2093526;28;20025;-65
2023/02/25 00:14:56;;;;;;;3.42;1.80;;;;;;;;;;2095263;28;20020;-65
2023/02/25 00:16:15;;;;;;;7.05;2.40;;;;;;;;;;2094372;28;20033;-65
2023/02/25 00:17:35;;;;;;;3.58;2.08;;;;;;;;;;2095091;28;20028;-65
2023/02/25 00:18:55;;;;;;;3.28;2.25;;;;;;;;;;2096535;28;20107;-65
2023/02/25 00:20:13;;;;;;;1.98;1.83;;;;;;;;;;2086027;28;20025;-65
2023/02/25 00:21:33;;;;;;;4.30;1.92;;;;;;;;;;2089576;28;20376;-65
2023/02/25 00:22:51;;;;;;;7.57;2.65;;;;;;;;;;2093263;28;20037;-65
2023/02/25 00:24:11;;;;;;;3.83;2.13;;;;;;;;;;2091814;28;20118;-66
2023/02/25 00:25:30;;;;;;;2.33;1.95;;;;;;;;;;2095696;28;20033;-65
2023/02/25 00:26:49;;;;;;;5.32;2.63;;;;;;;;;;2094525;28;20391;-65
2023/02/25 00:28:07;;;;;;;2.95;2.60;;;;;;;;;;2094270;28;20032;-65
2023/02/25 00:29:26;;;;;;;4.03;2.03;;;;;;;;;;2093857;28;20124;-65
2023/02/25 00:30:45;;;;;;;2.65;2.03;;;;;;;;;;2094058;28;20024;-65
2023/02/25 00:32:04;;;;;;;2.97;2.20;;;;;;;;;;2094971;28;20020;-65
2023/02/25 00:33:23;;;;;;;2.90;2.45;;;;;;;;;;2092727;28;20119;-65
2023/02/25 00:34:42;;;;;;;3.55;2.25;;;;;;;;;;2093080;28;20055;-65
2023/02/25 00:36:04;;;;;;;2.60;2.40;;;;;;;;;;2093457;28;20032;-65
2023/02/25 00:37:23;;;;;;;4.43;2.27;;;;;;;;;;2094493;28;20359;-65
2023/02/25 00:38:47;;;;;;;3.95;2.60;;;;;;;;;;2094456;28;20262;-65
2023/02/25 00:40:13;;;;;;;5.65;2.70;;;;;;;;;;2093841;28;20029;-65
2023/02/25 00:41:32;;;;;;;5.05;2.63;;;;;;;;;;2095118;28;20123;-65
2023/02/25 00:42:51;;;;;;;3.17;2.58;;;;;;;;;;2092646;28;20020;-65
2023/02/25 00:44:11;;;;;;;5.35;2.90;;;;;;;;;;2093465;28;20021;-65
2023/02/25 00:45:31;;;;;;;4.07;2.25;;;;;;;;;;2093476;28;20021;-64
2023/02/25 00:46:49;;;;;;;5.80;2.88;;;;;;;;;;2094450;28;20025;-65
2023/02/25 00:48:08;;;;;;;3.83;2.42;;;;;;;;;;2093144;28;20052;-64
2023/02/25 00:49:27;;;;;;;3.78;2.38;;;;;;;;;;2094809;28;20033;-65
2023/02/25 00:50:46;;;;;;;3.35;2.50;;;;;;;;;;2093021;28;20028;-65
2023/02/25 00:52:05;;;;;;;3.90;2.83;;;;;;;;;;2091610;28;20037;-65
2023/02/25 00:53:24;;;;;;;4.22;2.85;;;;;;;;;;2095126;28;20036;-66
2023/02/25 00:54:43;;;;;;;2.90;2.50;;;;;;;;;;2094587;28;20036;-65
2023/02/25 00:56:04;;;;;;;3.28;2.50;;;;;;;;;;2093682;28;20086;-67
2023/02/25 00:57:22;;;;;;;7.13;3.55;;;;;;;;;;2093532;28;20056;-67
2023/02/25 00:58:46;;;;;;;4.40;2.88;;;;;;;;;;2095780;28;20025;-65
2023/02/25 01:00:09;;;;;;;4.18;3.05;;;;;;;;;;2094799;28;20432;-65
2023/02/25 01:01:29;;;;;;;3.10;2.10;;;;;;;;;;2094691;28;20025;-65
2023/02/25 01:02:48;;;;;;;5.15;2.83;;;;;;;;;;2095260;28;20096;-65
2023/02/25 01:04:07;;;;;;;8.95;3.40;;;;;;;;;;2093521;28;20028;-65
2023/02/25 01:05:27;;;;;;;7.07;3.15;;;;;;;;;;2093746;28;20024;-65
2023/02/25 01:06:46;;;;;;;3.05;2.63;;;;;;;;;;2093381;28;20041;-65
2023/02/25 01:08:05;;;;;;;3.72;2.90;;;;;;;;;;2095435;28;20028;-65
2023/02/25 01:09:24;;;;;;;3.65;3.28;;;;;;;;;;2096803;28;20028;-64
2023/02/25 01:10:44;;;;;;;7.32;2.83;;;;;;;;;;2094423;28;20687;-64
2023/02/25 01:12:03;;;;;;;4.63;3.22;;;;;;;;;;2095969;28;20024;-64
2023/02/25 01:13:21;;;;;;;4.97;3.22;;;;;;;;;;2088229;28;20025;-64
2023/02/25 01:14:41;;;;;;;4.97;3.53;;;;;;;;;;2092634;28;20477;-65
2023/02/25 01:16:01;;;;;;;5.90;3.25;;;;;;;;;;2094857;28;20072;-64
2023/02/25 01:17:20;;;;;;;6.68;3.85;;;;;;;;;;2094262;28;20053;-64
2023/02/25 01:18:39;;;;;;;5.65;3.42;;;;;;;;;;2095316;28;20021;-64
2023/02/25 01:19:58;;;;;;;3.47;3.08;;;;;;;;;;2096563;28;20025;-64
2023/02/25 01:21:26;;;;;;;8.15;4.30;;;;;;;;;;2096484;28;20036;-64
2023/02/25 01:22:44;;;;;;;5.13;3.78;;;;;;;;;;2096281;28;20416;-65
2023/02/25 01:24:06;;;;;;;7.53;3.80;;;;;;;;;;2095983;28;20021;-64
2023/02/25 01:25:26;;;;;;;10.50;4.25;;;;;;;;;;2097090;28;20505;-65
2023/02/25 01:26:45;;;;;;;5.35;3.30;;;;;;;;;;2095194;28;20029;-64
2023/02/25 01:28:05;;;;;;;6.20;3.53;;;;;;;;;;2095128;28;20409;-65
2023/02/25 01:29:27;;;;;;;4.68;3.78;;;;;;;;;;2094697;28;20067;-64
2023/02/25 01:30:46;;;;;;;7.80;4.90;;;;;;;;;;2094846;28;20037;-65
2023/02/25 01:32:06;;;;;;;6.15;3.60;;;;;;;;;;2095193;28;20024;-65
2023/02/25 01:33:24;;;;;;;4.95;3.97;;;;;;;;;;2094302;28;20036;-65
2023/02/25 01:34:43;;;;;;;5.97;4.00;;;;;;;;;;2095266;28;20041;-66
2023/02/25 01:36:03;;;;;;;9.77;4.35;;;;;;;;;;2095328;28;20029;-65
2023/02/25 01:37:22;;;;;;;9.48;4.20;;;;;;;;;;2093181;28;21201;-65
2023/02/25 01:38:41;;;;;;;6.53;4.47;;;;;;;;;;2096007;28;20497;-65
2023/02/25 01:40:00;;;;;;;5.93;4.43;;;;;;;;;;2094892;28;20045;-65
2023/02/25 01:41:19;;;;;;;7.53;4.35;;;;;;;;;;2095511;28;20025;-65
2023/02/25 01:42:37;;;;;;;6.88;4.45;;;;;;;;;;2095487;28;20052;-65
2023/02/25 01:44:03;;;;;;;11.07;4.90;;;;;;;;;;2095971;28;20021;-66
2023/02/25 01:45:23;;;;;;;4.38;3.97;;;;;;;;;;2092562;28;20028;-65
2023/02/25 01:46:43;;;;;;;10.32;4.78;;;;;;;;;;2094172;28;20028;-65
2023/02/25 01:48:05;;;;;;;9.40;5.07;;;;;;;;;;2092400;28;20857;-65
2023/02/25 01:49:41;;;;;;;13.38;5.20;;;;;;;;;;2096249;28;20029;-65
2023/02/25 01:51:11;;;;;;;7.05;4.28;;;;;;;;;;2095987;28;20033;-66
2023/02/25 01:52:30;;;;;;;10.32;4.68;;;;;;;;;;2096623;28;20082;-65
2023/02/25 01:53:49;;;;;;;7.60;4.20;;;;;;;;;;2094250;28;20427;-65
2023/02/25 01:55:09;;;;;;;9.25;4.60;;;;;;;;;;2094083;28;20052;-65
2023/02/25 01:56:29;;;;;;;9.18;4.93;;;;;;;;;;2096617;28;20171;-65
2023/02/25 01:57:49;;;;;;;7.25;4.70;;;;;;;;;;2095349;28;20033;-66
2023/02/25 01:59:08;;;;;;;11.20;5.15;;;;;;;;;;2095822;28;20033;-65
2023/02/25 02:00:29;;;;;;;7.80;4.70;;;;;;;;;;2096136;28;20457;-65
2023/02/25 02:01:48;;;;;;;10.18;4.57;;;;;;;;;;2095174;28;20028;-65
2023/02/25 02:03:14;;;;;;;8.75;4.80;;;;;;;;;;2095829;28;20107;-66
2023/02/25 02:04:35;;;;;;;9.18;4.97;;;;;;;;;;2095961;28;20013;-66
2023/02/25 02:05:58;;;;;;;7.18;5.18;;;;;;;;;;2095049;28;20040;-66
2023/02/25 02:07:17;;;;;;;6.30;4.38;;;;;;;;;;2095704;28;20033;-66
2023/02/25 02:08:37;;;;;;;6.53;4.50;;;;;;;;;;2095949;28;20340;-66
2023/02/25 02:09:56;;;;;;;10.70;5.20;;;;;;;;;;2096413;28;20028;-65
2023/02/25 02:11:15;;;;;;;7.78;5.13;;;;;;;;;;2094691;28;20029;-65
2023/02/25 02:12:36;;;;;;;9.57;5.15;;;;;;;;;;2096244;28;20548;-65
2023/02/25 02:13:56;;;;;;;9.43;4.38;;;;;;;;;;2096009;28;20484;-65
2023/02/25 02:15:16;;;;;;;5.10;4.60;;;;;;;;;;2094572;28;20025;-65
2023/02/25 02:16:35;;;;;;;7.93;4.40;;;;;;;;;;2085436;28;20033;-65
2023/02/25 02:17:59;;;;;;;10.02;5.30;;;;;;;;;;2089959;28;20605;-66
2023/02/25 02:19:18;;;;;;;10.02;3.88;;;;;;;;;;2096217;28;20029;-65
2023/02/25 02:20:45;;;;;;;9.15;4.00;;;;;;;;;;2094364;28;20143;-66
2023/02/25 02:22:09;;;;;;;8.60;4.35;;;;;;;;;;2096836;28;20040;-65
2023/02/25 02:23:31;;;;;;;5.72;4.10;;;;;;;;;;2096009;28;20044;-65
2023/02/25 02:24:58;;;;;;;9.15;4.30;;;;;;;;;;2095333;28;20061;-65
2023/02/25 02:26:29;;;;;;;8.90;3.85;;;;;;;;;;2095817;28;20094;-65
2023/02/25 02:27:57;;;;;;;5.82;3.67;;;;;;;;;;2094110;28;20033;-66
2023/02/25 02:29:44;;;;;;;5.60;3.72;;;;;;;;;;2091312;28;20036;-65
2023/02/25 02:31:21;;;;;;;7.00;3.72;;;;;;;;;;2087149;28;20120;-66
2023/02/25 02:33:11;;;;;;;6.00;3.70;;;;;;;;;;2093761;28;20028;-66
2023/02/25 02:34:39;;;;;;;5.25;3.30;;;;;;;;;;2089036;28;20481;-66
2023/02/25 02:36:31;;;;;;;4.82;3.15;;;;;;;;;;2094249;28;20033;-65
2023/02/25 02:38:03;;;;;;;4.93;3.10;;;;;;;;;;2077969;28;20033;-65
2023/02/25 02:39:31;;;;;;;5.67;2.67;;;;;;;;;;2095584;28;20040;-66
2023/02/25 02:40:53;;;;;;;9.00;3.03;;;;;;;;;;2093423;28;20682;-65
2023/02/25 02:42:36;;;;;;;6.93;3.00;;;;;;;;;;2091965;28;20407;-65
2023/02/25 02:44:01;;;;;;;4.80;2.60;;;;;;;;;;2095029;28;20449;-65
2023/02/25 02:45:23;;;;;;;6.97;2.97;;;;;;;;;;2094123;28;20115;-65
2023/02/25 02:46:48;;;;;;;8.38;2.78;;;;;;;;;;2094593;28;20021;-65
2023/02/25 02:48:19;;;;;;;6.30;2.78;;;;;;;;;;2094691;28;20048;-65
2023/02/25 02:49:42;;;;;;;3.70;2.55;;;;;;;;;;2093466;28;20029;-65
2023/02/25 02:51:01;;;;;;;;;;;;;;;;;;2093717;28;20162;-65
2023/02/25 02:52:26;;;;;;;7.53;2.47;;;;;;;;;;2094627;28;19920;-65
2023/02/25 02:53:48;;;;;;;4.53;2.50;;;;;;;;;;2097614;28;20037;-65
2023/02/25 02:55:20;;;;;;;8.15;2.83;;;;;;;;;;2094392;28;20029;-65
2023/02/25 02:56:41;;;;;;;3.40;2.15;;;;;;;;;;2092509;28;20036;-65
2023/02/25 02:58:06;;;;;;;3.42;2.28;;;;;;;;;;2091030;28;20044;-65
2023/02/25 02:59:28;;;;;;;4.68;2.42;;;;;;;;;;2096493;28;20040;-65
2023/02/25 03:00:49;;;;;;;3.63;2.75;;;;;;;;;;2095573;28;20473;-65
2023/02/25 03:02:17;;;;;;;5.70;2.40;;;;;;;;;;2095341;28;20037;-65
2023/02/25 03:03:38;;;;;;;8.82;2.65;;;;;;;;;;2095048;28;20020;-65
2023/02/25 03:05:03;;;;;;;3.25;2.50;;;;;;;;;;2095595;28;20348;-65
2023/02/25 03:06:24;;;;;;;4.72;2.17;;;;;;;;;;2092633;28;20032;-65
2023/02/25 03:07:47;;;;;;;3.90;2.50;;;;;;;;;;2094349;28;20111;-65
2023/02/25 03:09:12;;;;;;;4.53;2.08;;;;;;;;;;2095166;28;20394;-65
2023/02/25 03:10:32;;;;;;;5.80;2.20;;;;;;;;;;2092857;28;20123;-65
2023/02/25 03:11:50;;;;;;;4.03;2.20;;;;;;;;;;2094745;28;20036;-65
2023/02/25 03:13:09;;;;;;;5.00;2.45;;;;;;;;;;2094872;28;20416;-65
2023/02/25 03:14:29;;;;;;;5.07;2.22;;;;;;;;;;2096088;28;20016;-65
2023/02/25 03:15:49;;;;;;;4.78;2.03;;;;;;;;;;2094973;28;20036;-66
2023/02/25 03:17:19;;;;;;;5.22;2.25;;;;;;;;;;2094363;28;20025;-65
2023/02/25 03:18:49;;;;;;;7.28;2.53;;;;;;;;;;2093956;28;20115;-65
2023/02/25 03:20:15;;;;;;;3.05;1.65;;;;;;;;;;2094705;28;20032;-68
2023/02/25 03:21:37;;;;;;;2.13;1.73;;;;;;;;;;2096568;28;20432;-65
2023/02/25 03:23:00;;;;;;;7.35;2.10;;;;;;;;;;2095722;28;20112;-65
2023/02/25 03:24:24;;;;;;;3.60;1.73;;;;;;;;;;2095333;28;20397;-65
2023/02/25 03:25:50;;;;;;;5.10;1.80;;;;;;;;;;2095970;28;20068;-65
2023/02/25 03:27:36;;;;;;;3.15;1.88;;;;;;;;;;2092752;28;20025;-65
2023/02/25 03:28:55;;;;;;;1.65;1.23;;;;;;;;;;2091802;28;20104;-65
2023/02/25 03:30:27;;;;;;;5.28;1.45;;;;;;;;;;2092193;28;20037;-65
2023/02/25 03:31:58;;;;;;;4.38;1.67;;;;;;;;;;2095832;28;20029;-65
2023/02/25 03:33:20;;;;;;;2.42;1.30;;;;;;;;;;2095641;28;20399;-65
2023/02/25 03:34:40;;;;;;;6.03;1.27;;;;;;;;;;2095283;28;20040;-66
2023/02/25 03:36:02;;;;;;;2.67;1.00;;;;;;;;;;2092216;28;20281;-65
2023/02/25 03:37:22;;;;;;;2.67;0.85;;;;;;;;;;2095432;28;20028;-65
2023/02/25 03:38:43;;;;;;;2.28;0.93;;;;;;;;;;2093833;28;20032;-66
2023/02/25 03:40:10;;;;;;;4.88;1.10;;;;;;;;;;2095479;28;20099;-65
2023/02/25 03:41:34;;;;;;;1.67;0.80;;;;;;;;;;2093782;28;20025;-66
2023/02/25 03:43:14;;;;;;;2.67;0.75;;;;;;;;;;2093757;28;20602;-66
2023/02/25 03:44:42;;;;;;;1.23;0.70;;;;;;;;;;2092941;28;20033;-66
2023/02/25 03:46:02;;;;;;;3.13;0.90;;;;;;;;;;2095833;28;20040;-67
2023/02/25 03:47:21;;;;;;;3.35;1.05;;;;;;;;;;2095420;28;20486;-66
2023/02/25 03:48:41;;;;;;;6.32;0.82;;;;;;;;;;2093768;28;20028;-66
2023/02/25 03:50:09;;;;;;;2.28;0.63;;;;;;;;;;2094761;28;20032;-65
2023/02/25 03:51:30;;;;;;;6.05;1.20;;;;;;;;;;2095559;28;20098;-65
2023/02/25 03:52:48;;;;;;;1.23;0.70;;;;;;;;;;2095123;28;20029;-65
2023/02/25 03:54:07;;;;;;;5.15;0.75;;;;;;;;;;2093453;28;20028;-65
2023/02/25 03:55:28;;;;;;;1.52;0.95;;;;;;;;;;2093613;28;20477;-65
2023/02/25 03:56:48;;;;;;;2.25;0.80;;;;;;;;;;2085388;28;20040;-66
2023/02/25 03:58:08;;;;;;;1.88;0.77;;;;;;;;;;2090727;28;20025;-65
2023/02/25 03:59:27;;;;;;;1.40;0.60;;;;;;;;;;2093955;28;20020;-66
2023/02/25 04:00:47;;;;;;;1.85;0.90;;;;;;;;;;2093280;28;20032;-65
2023/02/25 04:02:06;;;;;;;3.08;0.70;;;;;;;;;;2094908;28;20032;-65
2023/02/25 04:03:25;;;;;;;1.35;0.40;;;;;;;;;;2094319;28;20020;-66
2023/02/25 04:04:43;;;;;;;1.52;0.60;;;;;;;;;;2094452;28;20040;-65
2023/02/25 04:06:02;;;;;;;3.40;0.90;;;;;;;;;;2092019;28;20374;-65
2023/02/25 04:07:21;;;;;;;3.53;0.60;;;;;;;;;;2094831;28;20028;-66
2023/02/25 04:08:41;;;;;;;0.50;0.40;;;;;;;;;;2094187;28;20029;-66
2023/02/25 04:10:00;;;;;;;3.30;0.40;;;;;;;;;;2094208;28;20100;-66
2023/02/25 04:11:18;;;;;;;1.58;0.50;;;;;;;;;;2096988;28;20100;-66
2023/02/25 04:12:38;;;;;;;1.00;0.45;;;;;;;;;;2095602;28;20017;-65
2023/02/25 04:13:57;;;;;;;1.33;0.60;;;;;;;;;;2094893;28;20024;-65
2023/02/25 04:15:16;;;;;;;4.25;1.02;;;;;;;;;;2094468;28;20025;-66
2023/02/25 04:16:35;;;;;;;1.35;0.70;;;;;;;;;;2097126;28;20551;-65
2023/02/25 04:17:54;;;;;;;1.33;0.40;;;;;;;;;;2096586;28;20382;-66
2023/02/25 04:19:13;;;;;;;2.95;0.60;;;;;;;;;;2094350;28;20028;-65
2023/02/25 04:20:32;;;;;;;2.25;0.60;;;;;;;;;;2092668;28;20033;-66
2023/02/25 04:21:51;;;;;;;2.42;0.80;;;;;;;;;;2095947;28;20107;-65
2023/02/25 04:23:11;;;;;;;3.85;0.57;;;;;;;;;;2094946;28;20037;-66
2023/02/25 04:24:30;;;;;;;0.88;0.40;;;;;;;;;;2095194;28;20095;-65
2023/02/25 04:25:49;;;;;;;1.27;0.47;;;;;;;;;;2095090;28;20033;-65
2023/02/25 04:27:08;;;;;;;3.00;0.55;;;;;;;;;;2093936;28;20033;-65
2023/02/25 04:28:27;;;;;;;2.13;0.40;;;;;;;;;;2094539;28;20028;-65
2023/02/25 04:29:46;;;;;;;1.20;0.50;;;;;;;;;;2094087;28;20041;-66
2023/02/25 04:31:05;;;;;;;1.98;0.45;;;;;;;;;;2094947;28;20032;-65
2023/02/25 04:32:24;;;;;;;4.32;0.40;;;;;;;;;;2094998;28;20028;-65
2023/02/25 04:33:48;;;;;;;5.10;0.60;;;;;;;;;;2096970;28;20036;-65
2023/02/25 04:35:13;;;;;;;5.43;0.60;;;;;;;;;;2096103;28;20389;-66
2023/02/25 04:36:33;;;;;;;2.42;0.43;;;;;;;;;;2085700;28;20029;-65
2023/02/25 04:37:52;;;;;;;4.53;0.57;;;;;;;;;;2091156;28;20040;-65
2023/02/25 04:39:12;;;;;;;2.03;0.45;;;;;;;;;;2094179;28;20482;-66
2023/02/25 04:40:31;;;;;;;2.95;0.80;;;;;;;;;;2093598;28;20033;-66
2023/02/25 04:41:50;;;;;;;1.17;0.50;;;;;;;;;;2094416;28;20061;-66
2023/02/25 04:43:09;;;;;;;2.13;0.70;;;;;;;;;;2093266;28;20029;-67
2023/02/25 04:44:28;;;;;;;4.13;1.13;;;;;;;;;;2097153;28;20033;-66
2023/02/25 04:45:48;;;;;;;0.65;0.47;;;;;;;;;;2096395;28;20158;-66
2023/02/25 04:47:07;;;;;;;1.20;0.50;;;;;;;;;;2095315;28;20479;-66
2023/02/25 04:48:26;;;;;;;4.18;0.60;;;;;;;;;;2095359;28;20029;-65
2023/02/25 04:49:45;;;;;;;3.10;0.30;;;;;;;;;;2095325;28;20029;-66
2023/02/25 04:51:05;;;;;;;1.48;0.50;;;;;;;;;;2094724;28;20024;-67
2023/02/25 04:52:24;;;;;;;1.98;0.52;;;;;;;;;;2096612;28;20025;-66
2023/02/25 04:53:45;;;;;;;1.92;0.40;;;;;;;;;;2095884;28;20504;-66
2023/02/25 04:55:04;;;;;;;2.30;0.68;;;;;;;;;;2097720;28;20040;-65
2023/02/25 04:56:23;;;;;;;1.80;0.40;;;;;;;;;;2092669;28;20032;-66
2023/02/25 04:57:42;;;;;;;1.45;0.60;;;;;;;;;;2095996;28;20085;-66
2023/02/25 04:59:01;;;;;;;1.67;0.70;;;;;;;;;;2096583;28;20028;-66
2023/02/25 05:00:23;;;;;;;1.38;0.68;;;;;;;;;;2095355;28;20389;-66
2023/02/25 05:01:42;;;;;;;3.78;0.82;;;;;;;;;;2098164;28;20028;-68
2023/02/25 05:03:01;;;;;;;2.38;0.70;;;;;;;;;;2097513;28;20028;-64
2023/02/25 05:04:20;;;;;;;3.47;0.60;;;;;;;;;;2095453;28;20025;-66
2023/02/25 05:05:39;;;;;;;2.65;0.68;;;;;;;;;;2093948;28;20033;-66
2023/02/25 05:06:59;;;;;;;2.33;0.70;;;;;;;;;;2095696;28;20029;-66
2023/02/25 05:08:17;;;;;;;1.58;0.45;;;;;;;;;;2084418;28;20112;-66
2023/02/25 05:09:37;;;;;;;4.93;0.60;;;;;;;;;;2091402;28;20024;-66
2023/02/25 05:10:55;;;;;;;3.90;0.70;;;;;;;;;;2085216;28;20033;-66
2023/02/25 05:12:14;;;;;;;0.40;0.40;;;;;;;;;;2092172;28;20501;-66
2023/02/25 05:13:33;;;;;;;3.47;0.70;;;;;;;;;;2094216;28;20103;-66
2023/02/25 05:14:52;;;;;;;2.70;0.60;;;;;;;;;;2095133;28;20029;-66
2023/02/25 05:16:15;;;;;;;5.03;0.70;;;;;;;;;;2094759;28;20032;-66
2023/02/25 05:17:35;;;;;;;2.45;0.50;;;;;;;;;;2094647;28;20132;-66
2023/02/25 05:18:54;;;;;;;4.50;0.73;;;;;;;;;;2095691;28;20040;-68
2023/02/25 05:20:13;;;;;;;2.83;0.70;;;;;;;;;;2087080;28;20036;-67
2023/02/25 05:21:32;;;;;;;2.92;0.73;;;;;;;;;;2092692;28;20025;-66
2023/02/25 05:22:52;;;;;;;2.25;0.50;;;;;;;;;;2093534;28;20028;-66
2023/02/25 05:24:11;;;;;;;3.20;0.88;;;;;;;;;;2096331;28;20420;-66
2023/02/25 05:25:32;;;;;;;9.38;0.98;;;;;;;;;;2093063;28;20025;-66
2023/02/25 05:26:51;;;;;;;1.70;0.50;;;;;;;;;;2095191;28;20056;-66
2023/02/25 05:28:10;;;;;;;0.47;0.40;;;;;;;;;;2086401;28;20036;-67
2023/02/25 05:29:30;;;;;;;0.88;0.70;;;;;;;;;;2090298;28;20036;-66
2023/02/25 05:30:51;;;;;;;4.50;0.50;;;;;;;;;;2091826;28;20393;-67
2023/02/25 05:32:09;;;;;;;2.78;0.50;;;;;;;;;;2095068;28;20025;-67
2023/02/25 05:33:28;;;;;;;2.58;0.77;;;;;;;;;;2095262;28;20025;-66
2023/02/25 05:34:47;;;;;;;2.85;0.73;;;;;;;;;;2093088;28;20025;-67
2023/02/25 05:36:07;;;;;;;4.85;0.80;;;;;;;;;;2094665;28;20032;-66
2023/02/25 05:37:26;;;;;;;1.23;0.50;;;;;;;;;;2095132;28;20028;-66
2023/02/25 05:38:45;;;;;;;3.92;0.73;;;;;;;;;;2094032;28;20041;-66
2023/02/25 05:40:06;;;;;;;0.65;0.50;;;;;;;;;;2093835;28;20029;-66
2023/02/25 05:41:25;;;;;;;1.30;0.63;;;;;;;;;;2102372;28;20381;-67
2023/02/25 05:42:48;;;;;;;2.97;0.70;;;;;;;;;;2096736;28;20327;-66
2023/02/25 05:44:07;;;;;;;2.25;1.00;;;;;;;;;;2095136;28;20029;-66
2023/02/25 05:45:26;;;;;;;1.48;0.60;;;;;;;;;;2093212;28;20108;-67
2023/02/25 05:46:44;;;;;;;3.60;0.63;;;;;;;;;;2093953;28;20025;-67
2023/02/25 05:48:04;;;;;;;1.23;0.80;;;;;;;;;;2094687;28;20029;-67
2023/02/25 05:49:23;;;;;;;1.95;0.50;;;;;;;;;;2094709;28;20039;-67
2023/02/25 05:50:42;;;;;;;1.63;0.60;;;;;;;;;;2093946;28;20021;-67
2023/02/25 05:52:01;;;;;;;3.45;0.68;;;;;;;;;;2096047;28;20048;-66
2023/02/25 05:53:19;;;;;;;4.28;0.63;;;;;;;;;;2094763;28;20472;-66
2023/02/25 05:54:39;;;;;;;4.85;1.00;;;;;;;;;;2085076;28;20032;-66
2023/02/25 05:55:58;;;;;;;2.50;0.52;;;;;;;;;;2089629;28;20100;-66
2023/02/25 05:57:18;;;;;;;3.05;0.70;;;;;;;;;;2093872;28;20060;-66
2023/02/25 05:58:37;;;;;;;3.95;0.43;;;;;;;;;;2095335;28;20036;-66
2023/02/25 05:59:56;;;;;;;2.88;0.75;;;;;;;;;;2093855;28;20025;-66
2023/02/25 06:01:21;;;;;;;1.13;0.60;;;;;;;;;;2094254;28;20374;-67
2023/02/25 06:02:40;;;;;;;3.78;0.70;;;;;;;;;;2093900;28;20028;-67
2023/02/25 06:04:00;;;;;;;5.28;0.70;;;;;;;;;;2095183;28;20493;-66
2023/02/25 06:05:19;;;;;;;5.18;0.50;;;;;;;;;;2094240;28;20056;-66
2023/02/25 06:06:38;;;;;;;4.57;0.57;;;;;;;;;;2096244;28;20032;-67
2023/02/25 06:07:57;;;;;;;3.22;0.63;;;;;;;;;;2095171;28;20020;-66
2023/02/25 06:09:19;;;;;;;3.42;0.50;;;;;;;;;;2096704;28;20449;-66
2023/02/25 06:10:39;;;;;;;1.15;0.55;;;;;;;;;;2096880;28;20033;-66
2023/02/25 06:11:58;;;;;;;1.95;0.80;;;;;;;;;;2096247;28;20492;-67
2023/02/25 06:13:17;;;;;;;3.65;0.65;;;;;;;;;;2094660;28;20036;-66
2023/02/25 06:14:36;;;;;;;3.72;0.60;;;;;;;;;;2095979;28;20036;-66
2023/02/25 06:15:55;;;;;;;1.20;0.50;;;;;;;;;;2092131;28;20409;-66
2023/02/25 06:17:14;;;;;;;4.88;0.50;;;;;;;;;;2094731;28;20029;-66
2023/02/25 06:18:35;;;;;;;4.15;0.68;;;;;;;;;;2094931;28;20024;-66
2023/02/25 06:19:55;;;;;;;1.17;0.50;;;;;;;;;;2095563;28;20147;-66
2023/02/25 06:21:14;;;;;;;2.90;0.60;;;;;;;;;;2096061;28;20044;-67
2023/02/25 06:22:33;;;;;;;2.63;0.77;;;;;;;;;;2095922;28;20095;-67
2023/02/25 06:23:52;;;;;;;2.90;0.30;;;;;;;;;;2095685;28;20021;-67
2023/02/25 06:25:11;;;;;;;1.88;0.60;;;;;;;;;;2094966;28;20029;-67
2023/02/25 06:26:30;;;;;;;3.08;0.82;;;;;;;;;;2093677;28;20021;-67
2023/02/25 06:27:49;;;;;;;3.67;0.70;;;;;;;;;;2094857;28;20036;-67
2023/02/25 06:29:08;;;;;;;2.25;1.05;;;;;;;;;;2094279;28;20032;-67
2023/02/25 06:30:28;;;;;;;3.95;0.70;;;;;;;;;;2097049;28;20020;-67
2023/02/25 06:31:47;;;;;;;5.90;0.90;;;;;;;;;;2094878;28;20421;-67
2023/02/25 06:33:06;;;;;;;4.93;0.55;;;;;;;;;;2095039;28;20040;-67
2023/02/25 06:34:31;;;;;;;2.10;0.85;;;;;;;;;;2096073;28;20037;-67
2023/02/25 06:35:51;;;;;;;4.22;0.50;;;;;;;;;;2095673;28;20037;-68
2023/02/25 06:37:10;;;;;;;5.32;0.40;;;;;;;;;;2095890;28;20447;-67
2023/02/25 06:38:29;;;;;;;3.22;0.60;;;;;;;;;;2095077;28;20037;-67
2023/02/25 06:39:48;;;;;;;0.95;0.43;;;;;;;;;;2095208;28;20036;-67
2023/02/25 06:41:08;;;;;;;4.32;0.70;;;;;;;;;;2095171;28;20455;-67
2023/02/25 06:42:27;;;;;;;4.55;0.77;;;;;;;;;;2094012;28;20033;-67
2023/02/25 06:43:50;;;;;;;3.33;0.70;;;;;;;;;;2092741;28;20028;-67
2023/02/25 06:45:09;;;;;;;0.63;0.43;;;;;;;;;;2084808;28;20025;-67
2023/02/25 06:46:28;;;;;;;1.30;0.55;;;;;;;;;;2091139;28;20032;-67
2023/02/25 06:47:47;;;;;;;7.22;0.77;;;;;;;;;;2093609;28;20136;-67
2023/02/25 06:49:06;;;;;;;1.75;0.60;;;;;;;;;;2093302;28;20040;-67
2023/02/25 06:50:25;;;;;;;6.22;0.63;;;;;;;;;;2091766;28;20033;-67
2023/02/25 06:51:44;;;;;;;2.50;0.60;;;;;;;;;;2094388;28;20048;-67
2023/02/25 06:53:03;;;;;;;1.77;0.63;;;;;;;;;;2093090;28;20469;-68
2023/02/25 06:54:23;;;;;;;2.47;0.80;;;;;;;;;;2093865;28;20037;-67
2023/02/25 06:55:43;;;;;;;1.90;0.65;;;;;;;;;;2093932;28;20067;-67
2023/02/25 06:57:02;;;;;;;4.63;0.63;;;;;;;;;;2095048;28;20032;-67
2023/02/25 06:58:21;;;;;;;2.30;0.60;;;;;;;;;;2093280;28;20032;-67
2023/02/25 06:59:40;;;;;;;5.22;0.50;;;;;;;;;;2094887;28;20036;-67
2023/02/25 07:00:59;;;;;;;1.42;0.43;;;;;;;;;;2093530;28;20036;-67
2023/02/25 07:02:18;;;;;;;2.53;0.52;;;;;;;;;;2094599;28;20056;-67
2023/02/25 07:03:37;;;;;;;3.95;0.50;;;;;;;;;;2093945;28;20058;-67
2023/02/25 07:04:56;;;;;;;3.83;0.70;;;;;;;;;;2094355;28;20025;-67
2023/02/25 07:06:15;;;;;;;2.10;0.50;;;;;;;;;;2095601;28;20020;-67
2023/02/25 07:07:34;;;;;;;2.00;0.60;;;;;;;;;;2095320;28;20051;-67
2023/02/25 07:08:53;;;;;;;2.97;0.63;;;;;;;;;;2093133;28;20017;-67
2023/02/25 07:10:12;;;;;;;4.68;1.58;;;;;;;;;;2094695;28;20021;-67
2023/02/25 07:11:33;;;;;;;1.15;0.65;;;;;;;;;;2093879;28;20024;-67
2023/02/25 07:12:52;;;;;;;2.20;0.50;;;;;;;;;;2095344;28;20032;-67
2023/02/25 07:14:13;;;;;;;3.30;0.73;;;;;;;;;;2095977;28;20032;-68
2023/02/25 07:15:32;;;;;;;3.40;0.80;;;;;;;;;;2094752;28;20021;-67
2023/02/25 07:16:51;;;;;;;3.75;1.13;;;;;;;;;;2094701;28;20060;-67
2023/02/25 07:18:10;;;;;;;2.55;1.00;;;;;;;;;;2096026;28;20036;-67
2023/02/25 07:19:29;;;;;;;4.00;0.80;;;;;;;;;;2094916;28;20032;-67
2023/02/25 07:20:48;;;;;;;2.65;0.80;;;;;;;;;;2095653;28;20040;-67
2023/02/25 07:22:08;;;;;;;2.72;0.73;;;;;;;;;;2095167;28;20024;-67
2023/02/25 07:23:27;;;;;;;1.75;0.75;;;;;;;;;;2095988;28;20021;-68
2023/02/25 07:24:46;;;;;;;2.40;0.57;;;;;;;;;;2095804;28;20037;-68
2023/02/25 07:26:06;;;;;;;1.17;0.50;;;;;;;;;;2093750;28;20381;-70
2023/02/25 07:27:26;;;;;;;1.58;0.60;;;;;;;;;;2095216;28;20032;-67
2023/02/25 07:28:47;;;;;;;4.43;0.75;;;;;;;;;;2092784;28;20021;-67
2023/02/25 07:30:06;;;;;;;2.78;0.90;;;;;;;;;;2092630;28;20025;-67
2023/02/25 07:31:26;;;;;;;3.10;0.90;;;;;;;;;;2094749;28;20480;-67
2023/02/25 07:32:45;;;;;;;3.88;0.80;;;;;;;;;;2094403;28;20119;-67
2023/02/25 07:34:04;;;;;;;2.10;1.00;;;;;;;;;;2093047;28;20055;-68
2023/02/25 07:35:23;;;;;;;5.68;1.65;;;;;;;;;;2093272;28;20661;-67
2023/02/25 07:36:42;;;;;;;6.22;1.00;;;;;;;;;;2093199;28;20036;-67
2023/02/25 07:38:01;;;;;;;5.05;0.90;;;;;;;;;;2084506;28;20024;-67
2023/02/25 07:39:20;;;;;;;2.58;0.85;;;;;;;;;;2089811;28;20037;-67
2023/02/25 07:40:42;;;;;;;5.03;0.98;;;;;;;;;;2081571;28;20448;-67
2023/02/25 07:42:01;;;;;;;3.75;0.80;;;;;;;;;;2091229;28;20032;-67
2023/02/25 07:43:20;;;;;;;3.80;0.80;;;;;;;;;;2092712;28;20362;-67
2023/02/25 07:44:39;;;;;;;3.65;0.93;;;;;;;;;;2094136;28;20025;-67
2023/02/25 07:45:58;;;;;;;4.47;1.15;;;;;;;;;;2087260;28;20021;-67
2023/02/25 07:47:18;;;;;;;3.28;0.82;;;;;;;;;;2089293;28;20392;-67
2023/02/25 07:48:37;;;;;;;2.55;0.75;;;;;;;;;;2093521;28;20020;-67
2023/02/25 07:49:56;;;;;;;1.15;0.60;;;;;;;;;;2094797;28;20414;-68
2023/02/25 07:51:17;;;;;;;4.07;0.65;;;;;;;;;;2091668;28;20127;-68
2023/02/25 07:52:36;;;;;;;2.58;1.10;;;;;;;;;;2094864;28;20041;-67
2023/02/25 07:53:56;;;;;;;2.70;0.85;;;;;;;;;;2094338;28;20029;-68
2023/02/25 07:55:15;;;;;;;1.83;0.60;;;;;;;;;;2096725;28;20028;-68
2023/02/25 07:56:34;;;;;;;3.28;0.80;;;;;;;;;;2094174;28;20025;-69
2023/02/25 07:57:53;;;;;;;3.58;0.60;;;;;;;;;;2095580;28;20032;-68
2023/02/25 07:59:12;;;;;;;3.13;1.33;;;;;;;;;;2093303;28;20252;-68
2023/02/25 08:00:31;;;;;;;1.95;0.98;;;;;;;;;;2093070;28;20373;-67
2023/02/25 08:01:50;;;;;;;3.58;0.80;;;;;;;;;;2091935;28;20465;-67
2023/02/25 08:03:09;;;;;;;2.63;1.05;;;;;;;;;;2093357;28;20052;-67
2023/02/25 08:04:29;;;;;;;3.72;0.88;;;;;;;;;;2093354;28;20172;-68